METAR Formatted Surface Weather Observation
Issued by NWS

Home | Current Version | Previous Version | Text Only | Print | Product List | Glossary On
Versions: 1 2 3
000
SAUS45 KPSR 250559
MTRFHU
METAR KFHU 250556Z AUTO 00000KT 10SM CLR 20/17 A3012 RMK AO2 SLP137
T02000167 10294 20200 51010 $



USA.gov is the U.S. government's official web portal to all federal, state and local government web resources and services.